sensor_id;sensor_type;location;lat;lon;timestamp;temperature;humidity
13115;DHT22;6623;52.120;8.660;2023-04-02T00:00:36;6.40;85.30
13115;DHT22;6623;52.120;8.660;2023-04-02T00:03:21;6.40;85.50
13115;DHT22;6623;52.120;8.660;2023-04-02T00:05:47;6.40;85.60
13115;DHT22;6623;52.120;8.660;2023-04-02T00:08:37;6.30;85.20
13115;DHT22;6623;52.120;8.660;2023-04-02T00:11:03;6.30;85.20
13115;DHT22;6623;52.120;8.660;2023-04-02T00:13:36;6.20;85.30
13115;DHT22;6623;52.120;8.660;2023-04-02T00:16:06;6.20;85.30
13115;DHT22;6623;52.120;8.660;2023-04-02T00:18:33;6.20;85.00
13115;DHT22;6623;52.120;8.660;2023-04-02T00:23:40;6.10;85.10
13115;DHT22;6623;52.120;8.660;2023-04-02T00:28:54;6.10;84.90
13115;DHT22;6623;52.120;8.660;2023-04-02T00:31:20;5.80;85.10
13115;DHT22;6623;52.120;8.660;2023-04-02T00:33:48;6.00;85.00
13115;DHT22;6623;52.120;8.660;2023-04-02T00:36:13;6.10;84.90
13115;DHT22;6623;52.120;8.660;2023-04-02T00:38:40;5.90;85.40
13115;DHT22;6623;52.120;8.660;2023-04-02T00:41:14;6.00;84.80
13115;DHT22;6623;52.120;8.660;2023-04-02T00:43:43;6.00;84.70
13115;DHT22;6623;52.120;8.660;2023-04-02T00:46:14;5.90;84.70
13115;DHT22;6623;52.120;8.660;2023-04-02T00:48:49;6.00;84.80
13115;DHT22;6623;52.120;8.660;2023-04-02T00:51:43;6.10;84.90
13115;DHT22;6623;52.120;8.660;2023-04-02T00:54:10;6.00;84.70
13115;DHT22;6623;52.120;8.660;2023-04-02T00:56:42;5.90;84.60
13115;DHT22;6623;52.120;8.660;2023-04-02T01:01:42;6.00;84.50
13115;DHT22;6623;52.120;8.660;2023-04-02T01:04:27;5.90;84.50
13115;DHT22;6623;52.120;8.660;2023-04-02T01:06:53;5.90;84.60
13115;DHT22;6623;52.120;8.660;2023-04-02T01:09:38;5.90;84.70
13115;DHT22;6623;52.120;8.660;2023-04-02T01:15:18;5.90;84.60
13115;DHT22;6623;52.120;8.660;2023-04-02T01:26:26;5.80;84.00
13115;DHT22;6623;52.120;8.660;2023-04-02T01:31:36;5.80;83.70
13115;DHT22;6623;52.120;8.660;2023-04-02T01:34:05;5.70;83.50
13115;DHT22;6623;52.120;8.660;2023-04-02T01:44:30;5.60;82.80
13115;DHT22;6623;52.120;8.660;2023-04-02T01:46:57;5.50;82.70
13115;DHT22;6623;52.120;8.660;2023-04-02T01:49:25;5.50;82.60
13115;DHT22;6623;52.120;8.660;2023-04-02T01:51:53;5.40;82.10
13115;DHT22;6623;52.120;8.660;2023-04-02T01:54:21;5.40;82.30
13115;DHT22;6623;52.120;8.660;2023-04-02T01:56:48;5.40;82.40
13115;DHT22;6623;52.120;8.660;2023-04-02T01:59:17;5.40;82.50
13115;DHT22;6623;52.120;8.660;2023-04-02T02:02:05;5.30;82.30
13115;DHT22;6623;52.120;8.660;2023-04-02T02:04:31;5.40;82.40
13115;DHT22;6623;52.120;8.660;2023-04-02T02:06:59;5.40;82.50
13115;DHT22;6623;52.120;8.660;2023-04-02T02:09:31;5.40;82.40
13115;DHT22;6623;52.120;8.660;2023-04-02T02:11:59;5.40;82.30
13115;DHT22;6623;52.120;8.660;2023-04-02T02:14:27;5.40;82.10
13115;DHT22;6623;52.120;8.660;2023-04-02T02:16:55;5.40;81.80
13115;DHT22;6623;52.120;8.660;2023-04-02T02:19:42;5.30;81.40
13115;DHT22;6623;52.120;8.660;2023-04-02T02:24:59;5.30;81.50
13115;DHT22;6623;52.120;8.660;2023-04-02T02:32:28;5.30;81.60
13115;DHT22;6623;52.120;8.660;2023-04-02T02:37:30;5.30;81.50
13115;DHT22;6623;52.120;8.660;2023-04-02T02:40:00;5.30;81.00
13115;DHT22;6623;52.120;8.660;2023-04-02T02:42:37;5.00;80.70
13115;DHT22;6623;52.120;8.660;2023-04-02T02:45:09;5.20;80.70
13115;DHT22;6623;52.120;8.660;2023-04-02T02:47:38;5.20;80.50
13115;DHT22;6623;52.120;8.660;2023-04-02T02:50:10;5.00;80.00
13115;DHT22;6623;52.120;8.660;2023-04-02T02:52:38;5.20;80.50
13115;DHT22;6623;52.120;8.660;2023-04-02T02:55:20;5.10;80.00
13115;DHT22;6623;52.120;8.660;2023-04-02T02:57:54;5.10;80.00
13115;DHT22;6623;52.120;8.660;2023-04-02T03:00:20;4.90;79.60
13115;DHT22;6623;52.120;8.660;2023-04-02T03:02:49;5.10;79.70
13115;DHT22;6623;52.120;8.660;2023-04-02T03:05:23;4.90;79.40
13115;DHT22;6623;52.120;8.660;2023-04-02T03:07:50;4.90;79.10
13115;DHT22;6623;52.120;8.660;2023-04-02T03:10:38;4.80;79.10
13115;DHT22;6623;52.120;8.660;2023-04-02T03:13:16;4.90;79.20
13115;DHT22;6623;52.120;8.660;2023-04-02T03:16:01;4.80;79.30
13115;DHT22;6623;52.120;8.660;2023-04-02T03:18:49;4.90;79.50
13115;DHT22;6623;52.120;8.660;2023-04-02T03:23:52;4.70;79.60
13115;DHT22;6623;52.120;8.660;2023-04-02T03:26:32;4.80;79.30
13115;DHT22;6623;52.120;8.660;2023-04-02T03:29:04;4.90;79.10
13115;DHT22;6623;52.120;8.660;2023-04-02T03:31:45;4.70;79.20
13115;DHT22;6623;52.120;8.660;2023-04-02T03:34:26;4.70;79.30
13115;DHT22;6623;52.120;8.660;2023-04-02T03:37:06;3.70;78.90
13115;DHT22;6623;52.120;8.660;2023-04-02T03:42:24;4.80;79.50
13115;DHT22;6623;52.120;8.660;2023-04-02T03:44:59;4.80;79.50
13115;DHT22;6623;52.120;8.660;2023-04-02T03:47:46;4.70;79.10
13115;DHT22;6623;52.120;8.660;2023-04-02T03:50:44;4.70;79.10
13115;DHT22;6623;52.120;8.660;2023-04-02T03:53:11;4.70;79.20
13115;DHT22;6623;52.120;8.660;2023-04-02T03:55:39;4.70;79.40
13115;DHT22;6623;52.120;8.660;2023-04-02T04:01:23;4.70;79.30
13115;DHT22;6623;52.120;8.660;2023-04-02T04:03:53;4.60;79.00
13115;DHT22;6623;52.120;8.660;2023-04-02T04:06:26;4.60;79.20
13115;DHT22;6623;52.120;8.660;2023-04-02T04:09:17;4.60;79.30
13115;DHT22;6623;52.120;8.660;2023-04-02T04:11:49;4.60;79.30
13115;DHT22;6623;52.120;8.660;2023-04-02T04:17:09;4.50;79.30
13115;DHT22;6623;52.120;8.660;2023-04-02T04:24:39;4.40;79.50
13115;DHT22;6623;52.120;8.660;2023-04-02T04:30:16;4.70;79.40
13115;DHT22;6623;52.120;8.660;2023-04-02T04:32:54;4.30;78.90
13115;DHT22;6623;52.120;8.660;2023-04-02T04:35:33;4.40;78.50
13115;DHT22;6623;52.120;8.660;2023-04-02T04:38:03;4.40;79.20
13115;DHT22;6623;52.120;8.660;2023-04-02T04:40:35;4.60;79.30
13115;DHT22;6623;52.120;8.660;2023-04-02T04:43:13;5.00;79.20
13115;DHT22;6623;52.120;8.660;2023-04-02T04:45:46;4.10;78.80
13115;DHT22;6623;52.120;8.660;2023-04-02T04:51:00;4.30;78.50
13115;DHT22;6623;52.120;8.660;2023-04-02T04:53:29;4.30;78.40
13115;DHT22;6623;52.120;8.660;2023-04-02T04:55:59;4.20;78.30
13115;DHT22;6623;52.120;8.660;2023-04-02T05:01:32;4.30;78.60
13115;DHT22;6623;52.120;8.660;2023-04-02T05:04:15;4.30;78.60
13115;DHT22;6623;52.120;8.660;2023-04-02T05:07:04;4.30;78.60
13115;DHT22;6623;52.120;8.660;2023-04-02T05:09:42;4.30;78.30
13115;DHT22;6623;52.120;8.660;2023-04-02T05:18:16;4.20;78.00
13115;DHT22;6623;52.120;8.660;2023-04-02T05:21:06;4.30;78.20
13115;DHT22;6623;52.120;8.660;2023-04-02T05:26:10;4.20;78.30
13115;DHT22;6623;52.120;8.660;2023-04-02T05:29:05;4.10;78.00
13115;DHT22;6623;52.120;8.660;2023-04-02T05:31:37;4.40;78.30
13115;DHT22;6623;52.120;8.660;2023-04-02T05:34:07;3.90;77.80
13115;DHT22;6623;52.120;8.660;2023-04-02T05:36:34;4.30;78.20
13115;DHT22;6623;52.120;8.660;2023-04-02T05:39:00;4.20;78.30
13115;DHT22;6623;52.120;8.660;2023-04-02T05:41:32;4.20;78.20
13115;DHT22;6623;52.120;8.660;2023-04-02T05:44:25;4.40;78.40
13115;DHT22;6623;52.120;8.660;2023-04-02T05:47:04;4.30;78.20
13115;DHT22;6623;52.120;8.660;2023-04-02T05:52:12;4.50;78.10
13115;DHT22;6623;52.120;8.660;2023-04-02T05:57:34;4.40;77.90
13115;DHT22;6623;52.120;8.660;2023-04-02T06:00:06;4.40;77.80
13115;DHT22;6623;52.120;8.660;2023-04-02T06:02:35;4.40;77.90
13115;DHT22;6623;52.120;8.660;2023-04-02T06:05:11;4.50;77.90
13115;DHT22;6623;52.120;8.660;2023-04-02T06:07:43;4.40;78.00
13115;DHT22;6623;52.120;8.660;2023-04-02T06:10:17;4.30;77.60
13115;DHT22;6623;52.120;8.660;2023-04-02T06:12:57;4.60;77.70
13115;DHT22;6623;52.120;8.660;2023-04-02T06:15:28;4.50;77.10
13115;DHT22;6623;52.120;8.660;2023-04-02T06:18:14;4.50;76.90
13115;DHT22;6623;52.120;8.660;2023-04-02T06:20:41;4.40;76.60
13115;DHT22;6623;52.120;8.660;2023-04-02T06:23:15;4.40;76.00
13115;DHT22;6623;52.120;8.660;2023-04-02T06:25:50;4.40;76.20
13115;DHT22;6623;52.120;8.660;2023-04-02T06:31:11;4.40;76.40
13115;DHT22;6623;52.120;8.660;2023-04-02T06:33:39;4.30;76.60
13115;DHT22;6623;52.120;8.660;2023-04-02T06:36:06;4.40;76.40
13115;DHT22;6623;52.120;8.660;2023-04-02T06:38:33;4.50;76.30
13115;DHT22;6623;52.120;8.660;2023-04-02T06:41:04;4.40;76.00
13115;DHT22;6623;52.120;8.660;2023-04-02T06:43:38;4.30;76.10
13115;DHT22;6623;52.120;8.660;2023-04-02T06:46:09;4.60;76.40
13115;DHT22;6623;52.120;8.660;2023-04-02T06:48:38;4.50;75.90
13115;DHT22;6623;52.120;8.660;2023-04-02T06:51:09;4.50;76.10
13115;DHT22;6623;52.120;8.660;2023-04-02T06:53:38;4.60;76.20
13115;DHT22;6623;52.120;8.660;2023-04-02T06:56:57;4.60;76.00
13115;DHT22;6623;52.120;8.660;2023-04-02T06:58:58;4.70;76.00
13115;DHT22;6623;52.120;8.660;2023-04-02T07:01:27;4.80;75.90
13115;DHT22;6623;52.120;8.660;2023-04-02T07:03:53;4.70;75.60
13115;DHT22;6623;52.120;8.660;2023-04-02T07:06:20;4.70;75.50
13115;DHT22;6623;52.120;8.660;2023-04-02T07:08:46;4.50;75.50
13115;DHT22;6623;52.120;8.660;2023-04-02T07:11:14;4.70;75.70
13115;DHT22;6623;52.120;8.660;2023-04-02T07:13:42;4.70;75.80
13115;DHT22;6623;52.120;8.660;2023-04-02T07:16:14;4.80;75.70
13115;DHT22;6623;52.120;8.660;2023-04-02T07:18:40;4.80;75.50
13115;DHT22;6623;52.120;8.660;2023-04-02T07:21:06;4.80;75.50
13115;DHT22;6623;52.120;8.660;2023-04-02T07:23:34;4.80;75.70
13115;DHT22;6623;52.120;8.660;2023-04-02T07:26:04;4.80;75.70
13115;DHT22;6623;52.120;8.660;2023-04-02T07:28:29;4.90;75.60
13115;DHT22;6623;52.120;8.660;2023-04-02T07:30:56;5.90;76.30
13115;DHT22;6623;52.120;8.660;2023-04-02T07:33:24;5.00;75.50
13115;DHT22;6623;52.120;8.660;2023-04-02T07:35:50;4.80;75.10
13115;DHT22;6623;52.120;8.660;2023-04-02T07:38:17;5.30;75.70
13115;DHT22;6623;52.120;8.660;2023-04-02T07:40:42;5.10;74.90
13115;DHT22;6623;52.120;8.660;2023-04-02T07:43:09;5.00;74.60
13115;DHT22;6623;52.120;8.660;2023-04-02T07:45:34;5.00;74.40
13115;DHT22;6623;52.120;8.660;2023-04-02T07:48:05;5.10;74.10
13115;DHT22;6623;52.120;8.660;2023-04-02T07:50:31;5.10;73.30
13115;DHT22;6623;52.120;8.660;2023-04-02T07:52:57;4.90;72.70
13115;DHT22;6623;52.120;8.660;2023-04-02T07:55:22;5.10;72.70
13115;DHT22;6623;52.120;8.660;2023-04-02T07:57:53;5.00;73.00
13115;DHT22;6623;52.120;8.660;2023-04-02T08:00:19;5.10;72.80
13115;DHT22;6623;52.120;8.660;2023-04-02T08:02:45;5.50;72.80
13115;DHT22;6623;52.120;8.660;2023-04-02T08:05:11;5.20;73.50
13115;DHT22;6623;52.120;8.660;2023-04-02T08:07:37;4.90;72.60
13115;DHT22;6623;52.120;8.660;2023-04-02T08:10:08;6.60;73.40
13115;DHT22;6623;52.120;8.660;2023-04-02T08:12:38;5.40;72.40
13115;DHT22;6623;52.120;8.660;2023-04-02T08:15:04;5.30;71.40
13115;DHT22;6623;52.120;8.660;2023-04-02T08:17:31;5.30;71.00
13115;DHT22;6623;52.120;8.660;2023-04-02T08:19:58;5.30;70.80
13115;DHT22;6623;52.120;8.660;2023-04-02T08:22:30;5.20;70.40
13115;DHT22;6623;52.120;8.660;2023-04-02T08:24:55;5.20;70.80
13115;DHT22;6623;52.120;8.660;2023-04-02T08:27:22;5.20;71.60
13115;DHT22;6623;52.120;8.660;2023-04-02T08:29:48;5.30;70.40
13115;DHT22;6623;52.120;8.660;2023-04-02T08:32:15;6.60;71.50
13115;DHT22;6623;52.120;8.660;2023-04-02T08:34:41;6.50;69.90
13115;DHT22;6623;52.120;8.660;2023-04-02T08:37:12;5.30;68.50
13115;DHT22;6623;52.120;8.660;2023-04-02T08:39:38;5.10;68.00
13115;DHT22;6623;52.120;8.660;2023-04-02T08:42:27;4.90;68.60
13115;DHT22;6623;52.120;8.660;2023-04-02T08:47:39;5.60;68.60
13115;DHT22;6623;52.120;8.660;2023-04-02T08:52:42;5.70;68.40
13115;DHT22;6623;52.120;8.660;2023-04-02T08:55:33;5.70;68.30
13115;DHT22;6623;52.120;8.660;2023-04-02T09:00:48;5.90;68.40
13115;DHT22;6623;52.120;8.660;2023-04-02T09:03:18;5.90;67.90
13115;DHT22;6623;52.120;8.660;2023-04-02T09:05:47;5.80;67.30
13115;DHT22;6623;52.120;8.660;2023-04-02T09:08:21;5.90;67.60
13115;DHT22;6623;52.120;8.660;2023-04-02T09:11:14;6.00;67.00
13115;DHT22;6623;52.120;8.660;2023-04-02T09:13:45;6.00;67.30
13115;DHT22;6623;52.120;8.660;2023-04-02T09:16:33;6.00;67.90
13115;DHT22;6623;52.120;8.660;2023-04-02T09:21:51;6.20;67.50
13115;DHT22;6623;52.120;8.660;2023-04-02T09:24:19;6.10;66.60
13115;DHT22;6623;52.120;8.660;2023-04-02T09:26:45;7.40;67.60
13115;DHT22;6623;52.120;8.660;2023-04-02T09:31:39;6.20;65.90
13115;DHT22;6623;52.120;8.660;2023-04-02T09:36:54;6.30;66.70
13115;DHT22;6623;52.120;8.660;2023-04-02T09:39:22;6.30;66.70
13115;DHT22;6623;52.120;8.660;2023-04-02T09:41:48;6.50;65.80
13115;DHT22;6623;52.120;8.660;2023-04-02T09:44:21;6.50;65.80
13115;DHT22;6623;52.120;8.660;2023-04-02T09:46:54;6.50;66.00
13115;DHT22;6623;52.120;8.660;2023-04-02T09:49:26;6.50;65.30
13115;DHT22;6623;52.120;8.660;2023-04-02T09:52:27;6.50;64.90
13115;DHT22;6623;52.120;8.660;2023-04-02T09:55:22;6.70;65.50
13115;DHT22;6623;52.120;8.660;2023-04-02T09:57:50;6.80;65.40
13115;DHT22;6623;52.120;8.660;2023-04-02T10:00:31;6.70;64.40
13115;DHT22;6623;52.120;8.660;2023-04-02T10:03:05;6.80;64.90
13115;DHT22;6623;52.120;8.660;2023-04-02T10:05:32;6.80;64.40
13115;DHT22;6623;52.120;8.660;2023-04-02T10:08:16;6.70;64.60
13115;DHT22;6623;52.120;8.660;2023-04-02T10:10:45;6.90;65.60
13115;DHT22;6623;52.120;8.660;2023-04-02T10:21:07;7.10;64.30
13115;DHT22;6623;52.120;8.660;2023-04-02T10:23:34;7.20;64.30
13115;DHT22;6623;52.120;8.660;2023-04-02T10:26:19;7.90;64.20
13115;DHT22;6623;52.120;8.660;2023-04-02T10:32:19;7.20;63.80
13115;DHT22;6623;52.120;8.660;2023-04-02T10:35:00;7.30;63.80
13115;DHT22;6623;52.120;8.660;2023-04-02T10:40:09;7.40;63.40
13115;DHT22;6623;52.120;8.660;2023-04-02T10:45:49;7.40;63.40
13115;DHT22;6623;52.120;8.660;2023-04-02T10:51:40;7.50;64.00
13115;DHT22;6623;52.120;8.660;2023-04-02T10:57:00;7.50;63.30
13115;DHT22;6623;52.120;8.660;2023-04-02T10:59:31;7.40;63.30
13115;DHT22;6623;52.120;8.660;2023-04-02T11:02:01;7.50;63.80
13115;DHT22;6623;52.120;8.660;2023-04-02T11:04:36;7.50;63.60
13115;DHT22;6623;52.120;8.660;2023-04-02T11:07:13;7.50;63.60
13115;DHT22;6623;52.120;8.660;2023-04-02T11:09:43;7.60;63.30
13115;DHT22;6623;52.120;8.660;2023-04-02T11:15:01;7.70;62.40
13115;DHT22;6623;52.120;8.660;2023-04-02T11:17:27;7.70;62.60
13115;DHT22;6623;52.120;8.660;2023-04-02T11:23:12;7.80;63.40
13115;DHT22;6623;52.120;8.660;2023-04-02T11:25:40;7.90;63.20
13115;DHT22;6623;52.120;8.660;2023-04-02T11:30:49;8.10;63.70
13115;DHT22;6623;52.120;8.660;2023-04-02T11:35:56;8.10;62.70
13115;DHT22;6623;52.120;8.660;2023-04-02T11:48:29;8.10;61.50
13115;DHT22;6623;52.120;8.660;2023-04-02T11:50:55;8.10;61.30
13115;DHT22;6623;52.120;8.660;2023-04-02T11:53:30;8.10;61.10
13115;DHT22;6623;52.120;8.660;2023-04-02T12:01:44;8.20;60.60
13115;DHT22;6623;52.120;8.660;2023-04-02T12:09:56;8.30;60.30
13115;DHT22;6623;52.120;8.660;2023-04-02T12:12:24;8.30;59.50
13115;DHT22;6623;52.120;8.660;2023-04-02T12:14:53;8.20;59.50
13115;DHT22;6623;52.120;8.660;2023-04-02T12:17:30;8.10;59.90
13115;DHT22;6623;52.120;8.660;2023-04-02T12:19:59;8.30;59.90
13115;DHT22;6623;52.120;8.660;2023-04-02T12:22:29;8.20;60.20
13115;DHT22;6623;52.120;8.660;2023-04-02T12:24:59;8.30;59.10
13115;DHT22;6623;52.120;8.660;2023-04-02T12:27:27;8.20;58.90
13115;DHT22;6623;52.120;8.660;2023-04-02T12:29:55;8.20;59.80
13115;DHT22;6623;52.120;8.660;2023-04-02T12:32:34;8.20;59.40
13115;DHT22;6623;52.120;8.660;2023-04-02T12:35:00;8.00;58.80
13115;DHT22;6623;52.120;8.660;2023-04-02T12:37:28;8.00;57.90
13115;DHT22;6623;52.120;8.660;2023-04-02T12:39:59;7.90;58.50
13115;DHT22;6623;52.120;8.660;2023-04-02T12:42:30;8.00;59.10
13115;DHT22;6623;52.120;8.660;2023-04-02T12:44:56;8.10;59.00
13115;DHT22;6623;52.120;8.660;2023-04-02T12:47:22;8.10;59.00
13115;DHT22;6623;52.120;8.660;2023-04-02T12:49:48;8.00;58.50
13115;DHT22;6623;52.120;8.660;2023-04-02T12:52:16;8.00;58.40
13115;DHT22;6623;52.120;8.660;2023-04-02T12:54:55;8.10;59.00
13115;DHT22;6623;52.120;8.660;2023-04-02T12:59:54;8.20;59.70
13115;DHT22;6623;52.120;8.660;2023-04-02T13:02:28;8.30;59.90
13115;DHT22;6623;52.120;8.660;2023-04-02T13:04:57;8.30;59.90
13115;DHT22;6623;52.120;8.660;2023-04-02T13:07:29;8.40;60.00
13115;DHT22;6623;52.120;8.660;2023-04-02T13:09:59;8.50;58.40
13115;DHT22;6623;52.120;8.660;2023-04-02T13:12:38;8.40;56.40
13115;DHT22;6623;52.120;8.660;2023-04-02T13:22:52;7.90;58.70
13115;DHT22;6623;52.120;8.660;2023-04-02T13:25:19;7.90;58.10
13115;DHT22;6623;52.120;8.660;2023-04-02T13:27:48;7.90;57.90
13115;DHT22;6623;52.120;8.660;2023-04-02T13:30:21;7.90;58.10
13115;DHT22;6623;52.120;8.660;2023-04-02T13:32:47;8.00;58.60
13115;DHT22;6623;52.120;8.660;2023-04-02T13:35:13;8.00;58.90
13115;DHT22;6623;52.120;8.660;2023-04-02T13:37:38;8.10;58.90
13115;DHT22;6623;52.120;8.660;2023-04-02T13:40:04;8.10;59.40
13115;DHT22;6623;52.120;8.660;2023-04-02T13:42:31;8.10;59.00
13115;DHT22;6623;52.120;8.660;2023-04-02T13:44:56;8.10;59.00
13115;DHT22;6623;52.120;8.660;2023-04-02T13:47:22;8.20;58.80
13115;DHT22;6623;52.120;8.660;2023-04-02T13:49:47;8.20;58.30
13115;DHT22;6623;52.120;8.660;2023-04-02T13:52:14;7.90;58.30
13115;DHT22;6623;52.120;8.660;2023-04-02T13:57:08;8.10;58.40
13115;DHT22;6623;52.120;8.660;2023-04-02T13:59:33;8.00;58.70
13115;DHT22;6623;52.120;8.660;2023-04-02T14:02:08;8.10;58.60
13115;DHT22;6623;52.120;8.660;2023-04-02T14:04:37;8.10;58.40
13115;DHT22;6623;52.120;8.660;2023-04-02T14:12:44;8.00;57.90
13115;DHT22;6623;52.120;8.660;2023-04-02T14:18:51;8.00;58.70
13115;DHT22;6623;52.120;8.660;2023-04-02T14:21:25;8.00;58.70
13115;DHT22;6623;52.120;8.660;2023-04-02T14:24:10;8.00;58.90
13115;DHT22;6623;52.120;8.660;2023-04-02T14:26:44;8.10;59.10
13115;DHT22;6623;52.120;8.660;2023-04-02T14:32:28;8.10;58.90
13115;DHT22;6623;52.120;8.660;2023-04-02T14:37:43;8.10;58.80
13115;DHT22;6623;52.120;8.660;2023-04-02T14:40:42;8.10;59.00
13115;DHT22;6623;52.120;8.660;2023-04-02T14:45:41;8.20;59.10
13115;DHT22;6623;52.120;8.660;2023-04-02T14:50:57;8.30;60.00
13115;DHT22;6623;52.120;8.660;2023-04-02T14:53:31;8.40;58.90
13115;DHT22;6623;52.120;8.660;2023-04-02T14:56:03;8.50;59.30
13115;DHT22;6623;52.120;8.660;2023-04-02T14:58:34;8.60;59.50
13115;DHT22;6623;52.120;8.660;2023-04-02T15:01:24;8.60;59.40
13115;DHT22;6623;52.120;8.660;2023-04-02T15:04:04;8.60;58.80
13115;DHT22;6623;52.120;8.660;2023-04-02T15:06:40;8.70;58.70
13115;DHT22;6623;52.120;8.660;2023-04-02T15:09:15;8.60;58.70
13115;DHT22;6623;52.120;8.660;2023-04-02T15:11:50;8.60;58.60
13115;DHT22;6623;52.120;8.660;2023-04-02T15:14:26;8.60;58.90
13115;DHT22;6623;52.120;8.660;2023-04-02T15:16:52;8.60;59.30
13115;DHT22;6623;52.120;8.660;2023-04-02T15:19:18;8.60;59.40
13115;DHT22;6623;52.120;8.660;2023-04-02T15:27:33;8.80;59.10
13115;DHT22;6623;52.120;8.660;2023-04-02T15:30:11;8.90;58.80
13115;DHT22;6623;52.120;8.660;2023-04-02T15:32:38;8.90;58.10
13115;DHT22;6623;52.120;8.660;2023-04-02T15:38:14;8.90;58.30
13115;DHT22;6623;52.120;8.660;2023-04-02T15:40:47;8.90;58.20
13115;DHT22;6623;52.120;8.660;2023-04-02T15:46:16;8.90;58.30
13115;DHT22;6623;52.120;8.660;2023-04-02T15:51:55;8.90;57.90
13115;DHT22;6623;52.120;8.660;2023-04-02T15:59:29;8.90;57.90
13115;DHT22;6623;52.120;8.660;2023-04-02T16:07:23;8.90;56.70
13115;DHT22;6623;52.120;8.660;2023-04-02T16:12:40;8.80;56.80
13115;DHT22;6623;52.120;8.660;2023-04-02T16:15:57;8.80;56.80
13115;DHT22;6623;52.120;8.660;2023-04-02T16:18:11;8.80;56.90
13115;DHT22;6623;52.120;8.660;2023-04-02T16:20:44;8.80;57.30
13115;DHT22;6623;52.120;8.660;2023-04-02T16:23:13;8.80;57.40
13115;DHT22;6623;52.120;8.660;2023-04-02T16:26:02;8.80;57.30
13115;DHT22;6623;52.120;8.660;2023-04-02T16:42:58;8.70;57.70
13115;DHT22;6623;52.120;8.660;2023-04-02T16:47:53;8.80;57.50
13115;DHT22;6623;52.120;8.660;2023-04-02T17:01:27;8.70;56.70
13115;DHT22;6623;52.120;8.660;2023-04-02T17:03:59;8.70;56.80
13115;DHT22;6623;52.120;8.660;2023-04-02T17:06:43;8.60;57.10
13115;DHT22;6623;52.120;8.660;2023-04-02T17:09:16;8.50;56.90
13115;DHT22;6623;52.120;8.660;2023-04-02T17:11:51;8.40;56.80
13115;DHT22;6623;52.120;8.660;2023-04-02T17:14:33;8.20;56.80
13115;DHT22;6623;52.120;8.660;2023-04-02T17:17:04;8.30;56.90
13115;DHT22;6623;52.120;8.660;2023-04-02T17:19:31;8.20;56.60
13115;DHT22;6623;52.120;8.660;2023-04-02T17:22:00;8.20;56.80
13115;DHT22;6623;52.120;8.660;2023-04-02T17:24:30;8.20;57.00
13115;DHT22;6623;52.120;8.660;2023-04-02T17:27:25;8.10;57.00
13115;DHT22;6623;52.120;8.660;2023-04-02T17:29:56;8.10;57.20
13115;DHT22;6623;52.120;8.660;2023-04-02T17:32:31;8.00;57.30
13115;DHT22;6623;52.120;8.660;2023-04-02T17:35:39;8.10;57.50
13115;DHT22;6623;52.120;8.660;2023-04-02T17:43:56;8.00;57.70
13115;DHT22;6623;52.120;8.660;2023-04-02T17:47:00;8.00;57.80
13115;DHT22;6623;52.120;8.660;2023-04-02T17:52:21;7.90;58.00
13115;DHT22;6623;52.120;8.660;2023-04-02T17:57:35;7.90;58.10
13115;DHT22;6623;52.120;8.660;2023-04-02T18:05:45;8.00;58.60
13115;DHT22;6623;52.120;8.660;2023-04-02T18:13:57;8.00;58.70
13115;DHT22;6623;52.120;8.660;2023-04-02T18:16:38;7.90;58.70
13115;DHT22;6623;52.120;8.660;2023-04-02T18:19:16;7.90;58.60
13115;DHT22;6623;52.120;8.660;2023-04-02T18:21:50;7.80;58.40
13115;DHT22;6623;52.120;8.660;2023-04-02T18:27:36;7.70;58.40
13115;DHT22;6623;52.120;8.660;2023-04-02T18:35:37;7.60;58.80
13115;DHT22;6623;52.120;8.660;2023-04-02T18:43:41;7.70;59.60
13115;DHT22;6623;52.120;8.660;2023-04-02T18:46:53;7.70;59.20
13115;DHT22;6623;52.120;8.660;2023-04-02T18:49:30;7.70;59.30
13115;DHT22;6623;52.120;8.660;2023-04-02T18:52:00;7.70;59.30
13115;DHT22;6623;52.120;8.660;2023-04-02T18:57:44;7.70;59.40
13115;DHT22;6623;52.120;8.660;2023-04-02T19:00:33;7.70;59.50
13115;DHT22;6623;52.120;8.660;2023-04-02T19:03:35;7.70;59.50
13115;DHT22;6623;52.120;8.660;2023-04-02T19:06:06;7.70;59.60
13115;DHT22;6623;52.120;8.660;2023-04-02T19:08:41;7.70;59.70
13115;DHT22;6623;52.120;8.660;2023-04-02T19:11:22;7.70;59.80
13115;DHT22;6623;52.120;8.660;2023-04-02T19:13:59;7.80;59.90
13115;DHT22;6623;52.120;8.660;2023-04-02T19:19:21;7.80;60.00
13115;DHT22;6623;52.120;8.660;2023-04-02T19:24:39;7.80;60.00
13115;DHT22;6623;52.120;8.660;2023-04-02T19:30:08;7.70;60.10
13115;DHT22;6623;52.120;8.660;2023-04-02T19:33:02;7.70;60.90
13115;DHT22;6623;52.120;8.660;2023-04-02T19:35:56;7.70;60.30
13115;DHT22;6623;52.120;8.660;2023-04-02T19:41:37;7.70;60.40
13115;DHT22;6623;52.120;8.660;2023-04-02T19:44:12;7.50;60.40
13115;DHT22;6623;52.120;8.660;2023-04-02T19:46:39;7.60;60.50
13115;DHT22;6623;52.120;8.660;2023-04-02T19:49:40;7.60;60.50
13115;DHT22;6623;52.120;8.660;2023-04-02T19:52:06;7.60;60.50
13115;DHT22;6623;52.120;8.660;2023-04-02T19:54:31;7.60;60.50
13115;DHT22;6623;52.120;8.660;2023-04-02T19:56:57;7.50;60.50
13115;DHT22;6623;52.120;8.660;2023-04-02T19:59:24;7.50;60.40
13115;DHT22;6623;52.120;8.660;2023-04-02T20:01:49;7.40;60.30
13115;DHT22;6623;52.120;8.660;2023-04-02T20:04:15;7.10;60.20
13115;DHT22;6623;52.120;8.660;2023-04-02T20:06:40;7.20;60.40
13115;DHT22;6623;52.120;8.660;2023-04-02T20:09:06;7.30;60.40
13115;DHT22;6623;52.120;8.660;2023-04-02T20:11:34;7.20;60.30
13115;DHT22;6623;52.120;8.660;2023-04-02T20:14:00;7.20;60.40
13115;DHT22;6623;52.120;8.660;2023-04-02T20:16:25;7.10;60.40
13115;DHT22;6623;52.120;8.660;2023-04-02T20:18:51;7.10;60.50
13115;DHT22;6623;52.120;8.660;2023-04-02T20:21:17;7.00;60.50
13115;DHT22;6623;52.120;8.660;2023-04-02T20:23:43;7.00;60.60
13115;DHT22;6623;52.120;8.660;2023-04-02T20:26:08;7.00;60.70
13115;DHT22;6623;52.120;8.660;2023-04-02T20:28:34;6.90;60.70
13115;DHT22;6623;52.120;8.660;2023-04-02T20:31:09;6.90;60.70
13115;DHT22;6623;52.120;8.660;2023-04-02T20:33:34;6.90;61.30
13115;DHT22;6623;52.120;8.660;2023-04-02T20:36:06;6.80;60.70
13115;DHT22;6623;52.120;8.660;2023-04-02T20:38:32;6.50;61.30
13115;DHT22;6623;52.120;8.660;2023-04-02T20:41:00;6.60;60.80
13115;DHT22;6623;52.120;8.660;2023-04-02T20:43:26;6.70;60.80
13115;DHT22;6623;52.120;8.660;2023-04-02T20:45:57;6.70;60.90
13115;DHT22;6623;52.120;8.660;2023-04-02T20:48:24;6.60;61.00
13115;DHT22;6623;52.120;8.660;2023-04-02T20:50:52;6.60;61.10
13115;DHT22;6623;52.120;8.660;2023-04-02T20:53:18;6.50;61.20
13115;DHT22;6623;52.120;8.660;2023-04-02T20:55:44;6.50;61.30
13115;DHT22;6623;52.120;8.660;2023-04-02T20:58:16;6.40;61.40
13115;DHT22;6623;52.120;8.660;2023-04-02T21:00:43;6.40;61.50
13115;DHT22;6623;52.120;8.660;2023-04-02T21:03:09;6.30;61.50
13115;DHT22;6623;52.120;8.660;2023-04-02T21:05:46;6.20;61.60
13115;DHT22;6623;52.120;8.660;2023-04-02T21:08:12;6.30;61.70
13115;DHT22;6623;52.120;8.660;2023-04-02T21:10:38;6.10;61.80
13115;DHT22;6623;52.120;8.660;2023-04-02T21:13:04;6.20;61.90
13115;DHT22;6623;52.120;8.660;2023-04-02T21:15:30;6.00;61.90
13115;DHT22;6623;52.120;8.660;2023-04-02T21:17:56;6.10;62.00
13115;DHT22;6623;52.120;8.660;2023-04-02T21:20:21;6.20;62.10
13115;DHT22;6623;52.120;8.660;2023-04-02T21:22:47;6.10;62.20
13115;DHT22;6623;52.120;8.660;2023-04-02T21:25:13;6.00;62.20
13115;DHT22;6623;52.120;8.660;2023-04-02T21:27:38;6.10;62.30
13115;DHT22;6623;52.120;8.660;2023-04-02T21:30:04;6.00;62.30